Jerome, Idaho
Current Conditions -  °F | °C
As of 9:53 AM on Saturday 25 Oct 2014 (Local Time) from KJER Reporting Station
Clear Clear  
Wind Chill: 62°   Ceiling: Unl
Heat Index: 62°   Visibility: 10mi
Dew Point: 31°   Wind: 6mph
Humidity: 31%   Direction: 80°E
Pressure: 29.96"   Gusts: NA
Location:  42.72°N, 114.51°W
Report Text: KJER 251553Z AUTO 08005KT 10SM CLR 17/M01 A2996 RMK AO2 SLP119 T01671006
Loading
Personal Weather Stations






























Interactive Weather Map
Tropical Storm Tracking
New forecast layout! Learn more

10-Day Weather Forecast

Advertisements
Track Severe Weather on mobile